Overview Statistics Trail Chart Weather Telemetry Raw packets
 

This is the latest recevied weather packets stored in our database for station/object EA5JMY-10. If no packets are shown the sender has not sent any weather packets the latest 10 day(s).

<< 1 2 3 4 >>
Time Temp. Humidity Pressure Rain* Wind** Luminosity Snow
1788622301 35° C 41% 1021.4 hPa - - - -
1788621401 35.56° C 40% 1021.4 hPa - - - -
1788620501 36.11° C 40% 1021.6 hPa - - - -
1788619600 35.56° C 43% 1021.7 hPa - - - -
1788618700 35° C 43% 1022 hPa - - - -
1788617800 35° C 44% 1022.1 hPa - - - -
1788616900 35° C 46% 1022.1 hPa - - - -
1788616000 35° C 44% 1022.3 hPa - - - -
1788615100 34.44° C 45% 1022.4 hPa - - - -
1788614200 33.89° C 49% 1022.6 hPa - - - -
1788613300 33.89° C 49% 1022.7 hPa - - - -
1788612431 33.33° C 52% 1022.9 hPa - - - -
1788611499 32.22° C 53% 1023.1 hPa - - - -
1788610599 32.78° C 49% 1023.1 hPa - - - -
1788609699 33.89° C 44% 1023.1 hPa - - - -
1788608799 36.11° C 39% 1023.2 hPa - - - -
1788607899 36.11° C 39% 1023.2 hPa - - - -
1788606999 36.67° C 40% 1023.3 hPa - - - -
1788606099 37.22° C 36% 1023.3 hPa - - - -
1788605199 36.11° C 37% 1023.4 hPa - - - -
1788604298 38.33° C 34% 1023.3 hPa - - - -
1788603398 37.22° C 37% 1023.4 hPa - - - -
1788602498 39.44° C 33% 1023.4 hPa - - - -
1788601598 36.67° C 38% 1023.4 hPa - - - -
1788600698 36.11° C 40% 1023.2 hPa - - - -

* Rain since midnight (hover to see other rain measurements)
** Current wind speed in m/s (hover to see current wind gust speed)